Time;durP1;ratioP1;P1;durP2;ratioP2;P2;SDS_P1;SDS_P2;PMS_P1;PMS_P2;Temp;Humidity;BMP_temperature;BMP_pressure;BME280_temperature;BME280_humidity;BME280_pressure;Samples;Min_cycle;Max_cycle;Signal;HPM_P1;HPM_P2
2023/05/21 03:18:29;;;;;;;6.13;2.05;;;14.20;99.90;;;;;;6248471;22;86635;-69
2023/05/21 03:20:57;;;;;;;6.82;2.33;;;14.20;99.90;;;;;;6249815;22;86944;-69
2023/05/21 03:23:23;;;;;;;5.40;2.35;;;14.20;99.90;;;;;;6222031;22;87254;-70
2023/05/21 03:25:49;;;;;;;5.57;1.85;;;14.10;99.90;;;;;;6248949;22;88614;-69
2023/05/21 03:28:16;;;;;;;5.68;2.28;;;14.20;99.90;;;;;;6249749;22;88400;-70
2023/05/21 03:30:45;;;;;;;6.97;2.20;;;14.20;99.90;;;;;;6249899;22;87245;-68
2023/05/21 03:33:12;;;;;;;6.05;2.45;;;14.20;99.90;;;;;;6249940;22;87232;-72
2023/05/21 03:35:38;;;;;;;5.47;2.60;;;14.20;99.90;;;;;;6248571;22;89022;-70
2023/05/21 03:38:04;;;;;;;5.28;2.28;;;14.20;99.90;;;;;;6249683;22;88118;-70
2023/05/21 03:40:30;;;;;;;4.97;2.42;;;14.20;99.90;;;;;;6249833;22;87634;-69
2023/05/21 03:42:55;;;;;;;4.22;2.05;;;14.20;99.90;;;;;;6250110;22;86312;-70
2023/05/21 03:45:21;;;;;;;4.65;2.38;;;14.20;99.90;;;;;;6249125;22;88694;-70
2023/05/21 03:47:48;;;;;;;4.90;2.35;;;14.20;99.90;;;;;;6249372;22;87718;-70
2023/05/21 03:50:13;;;;;;;5.30;2.42;;;14.20;99.90;;;;;;6249649;22;88386;-71
2023/05/21 03:52:39;;;;;;;4.22;1.95;;;14.20;99.90;;;;;;6249959;22;87501;-69
2023/05/21 03:55:05;;;;;;;5.53;3.10;;;14.20;99.90;;;;;;6248916;22;88071;-71
2023/05/21 03:57:31;;;;;;;4.97;2.05;;;14.20;99.90;;;;;;6249244;22;87970;-70
2023/05/21 03:59:57;;;;;;;5.57;2.17;;;14.20;99.90;;;;;;6249680;22;86967;-73
2023/05/21 04:02:25;;;;;;;5.63;2.35;;;14.20;99.90;;;;;;6247914;22;87323;-73
2023/05/21 04:04:52;;;;;;;5.80;2.53;;;14.20;99.90;;;;;;6248946;22;88332;-70
2023/05/21 04:07:18;;;;;;;4.22;2.05;;;14.20;99.90;;;;;;6249394;22;88837;-73
2023/05/21 04:09:45;;;;;;;3.80;1.75;;;14.20;99.90;;;;;;6250058;22;87544;-71
2023/05/21 04:12:11;;;;;;;4.93;2.20;;;14.20;99.90;;;;;;6248861;22;87945;-68
2023/05/21 04:14:37;;;;;;;7.85;2.03;;;14.30;99.90;;;;;;6248556;22;89283;-70
2023/05/21 04:17:06;;;;;;;6.78;2.15;;;14.30;99.90;;;;;;6261610;22;89122;-72
2023/05/21 04:19:32;;;;;;;5.53;2.20;;;14.30;99.90;;;;;;6280527;22;87534;-71
2023/05/21 04:21:57;;;;;;;5.40;2.53;;;14.30;99.90;;;;;;6280288;22;86994;-69
2023/05/21 04:24:23;;;;;;;5.70;2.45;;;14.30;99.90;;;;;;6280546;22;87719;-69
2023/05/21 04:26:49;;;;;;;5.78;2.65;;;14.40;99.90;;;;;;6281342;22;87307;-70
2023/05/21 04:29:20;;;;;;;5.85;2.60;;;14.40;99.90;;;;;;6281530;22;86993;-69
2023/05/21 04:31:49;;;;;;;7.32;2.70;;;14.50;99.90;;;;;;6281962;22;86731;-70
2023/05/21 04:34:17;;;;;;;4.28;2.30;;;14.50;99.90;;;;;;6281980;22;89012;-70
2023/05/21 04:36:44;;;;;;;4.75;2.25;;;14.60;99.90;;;;;;6281493;22;87919;-71
2023/05/21 04:39:11;;;;;;;7.35;2.45;;;14.70;99.90;;;;;;6278513;22;87955;-69
2023/05/21 04:41:37;;;;;;;5.43;2.33;;;14.70;99.90;;;;;;6280048;22;87449;-68
2023/05/21 04:44:05;;;;;;;5.57;2.00;;;14.80;99.90;;;;;;6280526;22;88658;-69
2023/05/21 04:46:31;;;;;;;4.70;2.35;;;14.90;99.90;;;;;;6280485;22;87924;-71
2023/05/21 04:49:01;;;;;;;5.95;2.75;;;14.90;99.90;;;;;;6277133;22;86988;-72
2023/05/21 04:51:27;;;;;;;6.65;2.72;;;15.00;99.90;;;;;;6281083;22;87428;-70
2023/05/21 04:53:53;;;;;;;4.30;2.20;;;15.10;99.90;;;;;;6281322;22;87281;-69
2023/05/21 04:56:21;;;;;;;5.80;2.55;;;15.20;99.90;;;;;;6281592;22;88316;-71
2023/05/21 04:58:48;;;;;;;4.85;2.20;;;15.30;99.90;;;;;;6279470;22;87376;-70
2023/05/21 05:01:14;;;;;;;6.95;2.25;;;15.40;99.90;;;;;;6278886;22;87420;-69
2023/05/21 05:03:40;;;;;;;7.18;2.25;;;15.50;99.90;;;;;;6279708;22;89255;-68
2023/05/21 05:06:07;;;;;;;5.22;2.65;;;15.70;99.90;;;;;;6281357;22;88820;-71
2023/05/21 05:08:33;;;;;;;7.10;2.30;;;15.80;99.90;;;;;;6279890;22;87644;-69
2023/05/21 05:10:59;;;;;;;5.32;2.40;;;16.00;99.90;;;;;;6281223;22;87337;-71
2023/05/21 05:13:25;;;;;;;4.28;2.38;;;16.10;99.90;;;;;;6279403;22;88938;-70
2023/05/21 05:15:52;;;;;;;5.20;2.60;;;16.20;99.90;;;;;;6280330;22;87633;-72
2023/05/21 05:18:18;;;;;;;6.07;3.00;;;16.40;99.90;;;;;;6278657;22;87563;-70
2023/05/21 05:20:45;;;;;;;5.20;2.85;;;16.50;99.90;;;;;;6280302;22;86834;-70
2023/05/21 05:23:11;;;;;;;7.13;2.70;;;16.60;99.90;;;;;;6279947;22;87959;-70
2023/05/21 05:25:38;;;;;;;5.45;2.70;;;16.70;99.90;;;;;;6281122;22;87877;-70
2023/05/21 05:28:04;;;;;;;6.30;2.38;;;16.80;99.90;;;;;;6280370;22;88181;-69
2023/05/21 05:30:29;;;;;;;6.80;2.92;;;17.00;99.90;;;;;;6281536;22;87280;-71
2023/05/21 05:32:55;;;;;;;7.28;2.80;;;17.30;98.70;;;;;;6280626;22;87514;-70
2023/05/21 05:35:21;;;;;;;5.80;2.70;;;17.40;97.80;;;;;;6279166;22;87731;-71
2023/05/21 05:37:46;;;;;;;3.47;1.50;;;17.60;96.10;;;;;;6280861;22;87326;-71
2023/05/21 05:40:12;;;;;;;3.78;1.30;;;17.80;93.60;;;;;;6279752;22;87270;-72
2023/05/21 05:42:38;;;;;;;3.65;1.15;;;17.80;93.00;;;;;;6278914;22;87987;-72
2023/05/21 05:45:04;;;;;;;2.45;1.08;;;17.90;91.30;;;;;;6251797;22;89306;-70
2023/05/21 05:47:30;;;;;;;4.97;0.95;;;18.10;91.90;;;;;;6278265;22;87388;-69
2023/05/21 05:49:56;;;;;;;2.67;0.80;;;18.30;90.20;;;;;;6276147;22;87472;-70
2023/05/21 05:52:21;;;;;;;2.65;1.00;;;18.40;89.10;;;;;;6278487;22;88882;-70
2023/05/21 05:54:47;;;;;;;2.97;1.30;;;18.30;88.40;;;;;;6277351;22;88053;-72
2023/05/21 05:57:13;;;;;;;3.85;1.17;;;18.40;88.60;;;;;;6279159;22;87430;-72
2023/05/21 05:59:38;;;;;;;3.03;0.93;;;18.60;89.80;;;;;;6279276;22;87670;-70
2023/05/21 06:02:04;;;;;;;3.80;0.93;;;19.00;90.20;;;;;;6278147;22;87735;-70
2023/05/21 06:04:30;;;;;;;2.65;1.73;;;19.20;90.20;;;;;;6278839;22;87997;-72
2023/05/21 06:06:56;;;;;;;3.17;0.90;;;19.50;86.90;;;;;;6278698;22;87297;-70
2023/05/21 06:09:23;;;;;;;2.22;0.90;;;19.80;83.80;;;;;;6279454;22;86402;-71
2023/05/21 06:11:48;;;;;;;2.67;1.23;;;19.90;82.80;;;;;;6278447;22;88503;-68
2023/05/21 06:14:14;;;;;;;1.90;0.70;;;20.10;84.00;;;;;;6278919;22;87813;-68
2023/05/21 06:16:40;;;;;;;2.28;1.30;;;20.30;81.70;;;;;;6276774;22;88273;-69
2023/05/21 06:19:05;;;;;;;4.70;1.15;;;20.40;80.40;;;;;;6279652;22;87434;-70
2023/05/21 06:21:31;;;;;;;2.63;0.90;;;20.80;77.80;;;;;;6278507;22;88113;-69
2023/05/21 06:23:57;;;;;;;3.45;1.42;;;21.10;77.20;;;;;;6278283;22;87928;-69
2023/05/21 06:26:23;;;;;;;4.28;0.80;;;21.40;76.50;;;;;;6279219;22;87131;-71
2023/05/21 06:28:48;;;;;;;3.35;1.02;;;22.30;74.00;;;;;;6279417;22;87432;-70
2023/05/21 06:31:15;;;;;;;2.45;1.17;;;23.00;69.40;;;;;;6278583;22;87811;-69
2023/05/21 06:33:40;;;;;;;4.78;1.45;;;22.70;70.10;;;;;;6277948;22;88279;-71
2023/05/21 06:36:06;;;;;;;2.20;1.20;;;23.20;69.10;;;;;;6279094;22;87017;-70
2023/05/21 06:38:32;;;;;;;4.68;1.55;;;23.80;66.30;;;;;;6279348;22;87475;-70
2023/05/21 06:40:58;;;;;;;2.85;1.95;;;24.60;65.30;;;;;;6278194;22;88977;-69
2023/05/21 06:43:23;;;;;;;6.85;1.00;;;25.50;62.10;;;;;;6277531;22;88751;-66
2023/05/21 06:45:49;;;;;;;2.65;1.00;;;26.20;58.80;;;;;;6278076;22;87379;-67
2023/05/21 06:48:18;;;;;;;3.17;1.15;;;26.50;59.10;;;;;;6279825;22;87540;-70
2023/05/21 06:50:44;;;;;;;4.65;1.27;;;26.70;57.20;;;;;;6280795;22;87371;-69
2023/05/21 06:53:10;;;;;;;3.00;1.70;;;27.00;57.30;;;;;;6279759;22;87620;-70
2023/05/21 06:55:36;;;;;;;2.35;1.50;;;27.10;56.10;;;;;;6280646;22;87338;-70
2023/05/21 06:58:01;;;;;;;4.22;2.20;;;27.50;57.00;;;;;;6280880;22;86731;-68
2023/05/21 07:00:27;;;;;;;3.35;1.70;;;28.60;53.30;;;;;;6278866;22;87783;-71
2023/05/21 07:02:53;;;;;;;1.98;1.33;;;29.00;53.20;;;;;;6280015;22;87373;-70
2023/05/21 07:05:19;;;;;;;3.35;2.03;;;29.20;51.60;;;;;;6277926;22;88377;-69
2023/05/21 07:07:45;;;;;;;2.13;1.25;;;29.60;51.20;;;;;;6278887;22;87325;-71
2023/05/21 07:10:11;;;;;;;2.67;1.50;;;29.90;50.10;;;;;;6278847;22;88504;-71
2023/05/21 07:12:37;;;;;;;1.77;1.27;;;29.90;49.20;;;;;;6279417;22;87332;-71
2023/05/21 07:15:02;;;;;;;2.95;1.40;;;29.80;48.80;;;;;;6278476;22;87423;-71
2023/05/21 07:17:28;;;;;;;2.83;1.33;;;29.80;48.00;;;;;;6279341;22;87381;-71
2023/05/21 07:19:54;;;;;;;2.88;1.60;;;29.60;49.10;;;;;;6279753;22;87906;-72
2023/05/21 07:22:20;;;;;;;2.05;1.23;;;29.40;48.00;;;;;;6252640;22;88760;-71
2023/05/21 07:24:45;;;;;;;2.00;1.60;;;29.70;47.80;;;;;;6275771;22;87295;-71
2023/05/21 07:27:11;;;;;;;2.78;1.48;;;29.80;48.00;;;;;;6278656;22;87089;-71
2023/05/21 07:29:37;;;;;;;1.92;1.27;;;29.80;48.80;;;;;;6277014;22;89071;-73
2023/05/21 07:32:03;;;;;;;2.50;1.13;;;30.40;46.30;;;;;;6278582;22;88137;-70
2023/05/21 07:34:28;;;;;;;3.55;2.55;;;30.90;48.50;;;;;;6279395;22;87255;-69
2023/05/21 07:36:54;;;;;;;4.35;2.58;;;30.10;50.80;;;;;;6279281;22;87093;-71
2023/05/21 07:39:20;;;;;;;3.28;2.67;;;30.00;51.40;;;;;;6277730;22;88101;-71
2023/05/21 07:41:45;;;;;;;4.05;2.83;;;29.80;52.80;;;;;;6279547;22;87442;-70
2023/05/21 07:44:11;;;;;;;5.95;2.60;;;29.90;51.20;;;;;;6279979;22;87407;-71
2023/05/21 07:46:36;;;;;;;4.22;3.33;;;30.40;50.80;;;;;;6277156;22;86427;-69
2023/05/21 07:49:02;;;;;;;3.83;3.00;;;31.20;49.80;;;;;;6278416;22;88655;-71
2023/05/21 07:51:28;;;;;;;6.95;3.25;;;31.60;49.50;;;;;;6280265;22;87564;-70
2023/05/21 07:53:53;;;;;;;7.80;2.75;;;32.00;48.30;;;;;;6279457;22;88349;-70
2023/05/21 07:56:20;;;;;;;4.65;3.03;;;32.20;49.00;;;;;;6280419;22;87398;-71
2023/05/21 07:58:46;;;;;;;5.35;2.80;;;32.80;47.90;;;;;;6280006;22;87862;-71
2023/05/21 08:01:12;;;;;;;6.90;4.00;;;32.60;47.80;;;;;;6282160;22;87287;-71
2023/05/21 08:03:37;;;;;;;5.15;3.75;;;32.80;47.80;;;;;;6281616;22;86985;-71
2023/05/21 08:06:03;;;;;;;6.03;4.28;;;32.50;47.60;;;;;;6281992;22;87485;-72
2023/05/21 08:08:29;;;;;;;5.10;4.10;;;32.70;47.00;;;;;;6279399;22;88029;-70
2023/05/21 08:10:55;;;;;;;10.25;5.22;;;32.60;47.20;;;;;;6281963;22;87734;-70
2023/05/21 08:13:20;;;;;;;6.97;4.57;;;32.20;47.10;;;;;;6282081;22;87573;-70
2023/05/21 08:15:47;;;;;;;5.20;3.85;;;31.60;46.90;;;;;;6281707;22;87003;-70
2023/05/21 08:18:13;;;;;;;6.28;4.50;;;31.50;48.10;;;;;;6279764;22;89073;-70
2023/05/21 08:20:40;;;;;;;5.75;3.95;;;31.40;47.60;;;;;;6276944;22;88308;-72
2023/05/21 08:23:05;;;;;;;5.55;4.95;;;31.20;48.30;;;;;;6279848;22;87225;-71
2023/05/21 08:25:31;;;;;;;7.05;4.80;;;31.20;47.80;;;;;;6281785;22;86952;-70
2023/05/21 08:27:57;;;;;;;7.25;3.80;;;31.20;48.40;;;;;;6280701;22;88566;-69
2023/05/21 08:30:23;;;;;;;6.30;4.30;;;30.90;48.60;;;;;;6279742;22;87443;-70
2023/05/21 08:32:49;;;;;;;6.32;4.20;;;31.10;49.20;;;;;;6279294;22;87293;-72
2023/05/21 08:35:15;;;;;;;8.13;5.07;;;31.20;49.50;;;;;;6281952;22;86357;-70
2023/05/21 08:37:40;;;;;;;10.85;5.15;;;30.70;49.80;;;;;;6281182;22;87713;-70
2023/05/21 08:40:08;;;;;;;8.68;4.93;;;30.50;51.10;;;;;;6281006;22;88226;-71
2023/05/21 08:42:45;;;;;;;8.68;6.13;;;30.60;50.80;;;;;;6279437;22;88262;-71
2023/05/21 08:45:13;;;;;;;9.77;6.05;;;30.30;50.40;;;;;;6282542;22;86939;-71
2023/05/21 08:47:42;;;;;;;9.90;7.13;;;30.00;50.50;;;;;;6281865;22;88110;-71
2023/05/21 08:50:18;;;;;;;8.85;6.25;;;29.90;51.50;;;;;;6254097;22;89659;-71
2023/05/21 08:52:44;;;;;;;10.25;6.65;;;30.00;51.50;;;;;;6280179;22;87732;-71
2023/05/21 08:55:09;;;;;;;8.90;6.72;;;30.40;51.20;;;;;;6281277;22;87493;-70
2023/05/21 08:57:35;;;;;;;10.80;7.57;;;30.80;50.80;;;;;;6253549;22;90003;-69
2023/05/21 09:00:03;;;;;;;9.50;6.97;;;31.10;50.40;;;;;;6281309;22;90453;-71
2023/05/21 09:02:33;;;;;;;10.52;6.85;;;31.30;49.50;;;;;;6281653;22;87540;-71
2023/05/21 09:05:02;;;;;;;10.38;7.22;;;31.80;49.20;;;;;;6281606;22;87335;-72
2023/05/21 09:07:28;;;;;;;11.98;6.50;;;32.20;48.70;;;;;;6278015;22;88889;-70
2023/05/21 09:10:02;;;;;;;11.73;7.10;;;32.60;49.10;;;;;;6279498;22;89679;-72
2023/05/21 09:12:28;;;;;;;9.25;6.57;;;32.80;48.70;;;;;;6280860;22;87190;-70
2023/05/21 09:14:57;;;;;;;12.80;6.35;;;32.90;47.90;;;;;;6280301;22;87132;-70
2023/05/21 09:17:23;;;;;;;;;;;32.50;48.70;;;;;;6280491;22;88166;-70
2023/05/21 09:20:15;;;;;;;10.57;6.90;;;32.70;48.80;;;;;;6281422;22;87691;-70
2023/05/21 09:22:45;;;;;;;8.25;6.35;;;32.40;48.10;;;;;;6280040;22;87302;-70
2023/05/21 09:25:23;;;;;;;8.15;6.43;;;32.00;48.40;;;;;;6281558;22;86704;-72
2023/05/21 09:27:49;;;;;;;8.52;6.47;;;31.80;49.30;;;;;;6280933;22;88161;-70
2023/05/21 09:30:16;;;;;;;8.13;6.13;;;31.60;49.60;;;;;;6280298;22;87432;-71
2023/05/21 09:32:43;;;;;;;8.10;6.25;;;31.40;49.90;;;;;;6280101;22;88380;-69
2023/05/21 09:35:11;;;;;;;7.57;5.78;;;31.30;48.90;;;;;;6281232;22;87224;-68
2023/05/21 09:37:43;;;;;;;10.23;6.07;;;31.50;50.00;;;;;;6280462;22;88505;-69
2023/05/21 09:40:11;;;;;;;7.68;5.63;;;31.50;50.00;;;;;;6280244;22;87221;-69
2023/05/21 09:42:42;;;;;;;8.27;5.60;;;32.00;49.30;;;;;;6281248;22;87414;-69
2023/05/21 09:45:11;;;;;;;7.53;5.53;;;31.70;48.50;;;;;;6280694;22;87233;-69
2023/05/21 09:47:42;;;;;;;8.13;5.57;;;31.90;48.40;;;;;;6279449;22;88493;-70
2023/05/21 09:50:12;;;;;;;8.20;4.68;;;31.90;48.30;;;;;;6280764;22;87186;-70
2023/05/21 09:52:38;;;;;;;6.65;5.07;;;32.00;49.60;;;;;;6281092;22;87278;-70
2023/05/21 09:55:05;;;;;;;8.68;5.80;;;32.00;48.50;;;;;;6281370;22;87450;-70
2023/05/21 09:57:31;;;;;;;8.30;5.30;;;31.70;48.90;;;;;;6244053;22;89071;-72
2023/05/21 09:59:57;;;;;;;10.85;6.45;;;31.70;49.50;;;;;;6270452;22;87565;-70
2023/05/21 10:02:23;;;;;;;8.85;5.97;;;31.20;49.50;;;;;;6268619;22;87422;-71
2023/05/21 10:04:50;;;;;;;9.35;6.38;;;30.90;51.00;;;;;;6270851;22;87601;-71
2023/05/21 10:07:20;;;;;;;8.02;6.15;;;30.50;52.50;;;;;;6273707;22;88147;-70
2023/05/21 10:09:47;;;;;;;11.07;7.38;;;30.40;50.90;;;;;;6272318;22;88335;-70
2023/05/21 10:12:16;;;;;;;11.43;6.25;;;30.40;52.00;;;;;;6274066;22;87519;-71
2023/05/21 10:14:45;;;;;;;9.65;6.60;;;30.40;52.20;;;;;;6272728;22;86749;-69
2023/05/21 10:17:13;;;;;;;8.18;5.65;;;30.00;50.40;;;;;;6272110;22;87640;-69
2023/05/21 10:19:40;;;;;;;8.27;5.40;;;29.80;51.80;;;;;;6271670;22;87765;-69
2023/05/21 10:22:07;;;;;;;9.07;6.10;;;29.80;52.30;;;;;;6269925;22;89825;-71
2023/05/21 10:24:33;;;;;;;9.73;6.13;;;29.90;52.00;;;;;;6244229;22;87182;-70
2023/05/21 10:27:00;;;;;;;8.35;5.60;;;29.90;51.70;;;;;;6273256;22;88476;-70
2023/05/21 10:29:27;;;;;;;9.73;6.50;;;29.60;53.20;;;;;;6272636;22;88450;-69
2023/05/21 10:31:53;;;;;;;9.98;6.05;;;29.60;53.60;;;;;;6272700;22;87458;-70
2023/05/21 10:34:20;;;;;;;9.13;5.78;;;29.40;54.90;;;;;;6273728;22;87495;-71
2023/05/21 10:36:48;;;;;;;10.90;6.10;;;29.60;53.70;;;;;;6272712;22;88320;-71
2023/05/21 10:39:16;;;;;;;9.55;5.82;;;29.70;53.80;;;;;;6272984;22;87867;-70
2023/05/21 10:41:55;;;;;;;14.52;6.75;;;29.50;54.50;;;;;;6273124;22;87393;-69
2023/05/21 10:44:37;;;;;;;9.55;6.55;;;29.50;55.90;;;;;;6273223;22;87578;-70
2023/05/21 10:47:27;;;;;;;8.13;5.97;;;29.50;55.20;;;;;;6272065;22;89708;-70
2023/05/21 10:50:10;;;;;;;9.98;6.30;;;29.50;53.90;;;;;;6272456;22;89166;-69
2023/05/21 10:53:01;;;;;;;9.82;6.72;;;29.50;53.80;;;;;;6245303;22;87546;-70
2023/05/21 10:56:01;;;;;;;8.77;6.55;;;29.30;55.20;;;;;;6272554;22;87456;-70
2023/05/21 10:58:39;;;;;;;11.20;6.03;;;29.10;54.50;;;;;;6272177;22;87324;-69
2023/05/21 11:01:06;;;;;;;10.77;6.28;;;29.10;57.00;;;;;;6272933;22;88113;-71
2023/05/21 11:03:33;;;;;;;9.10;6.28;;;29.10;56.30;;;;;;6273043;22;86987;-70
2023/05/21 11:06:01;;;;;;;7.72;5.57;;;29.20;55.20;;;;;;6271852;22;86805;-70
2023/05/21 11:08:34;;;;;;;8.63;6.30;;;29.30;57.70;;;;;;6272469;22;87919;-70
2023/05/21 11:11:01;;;;;;;8.63;5.93;;;29.60;56.70;;;;;;6271965;22;87887;-70
2023/05/21 11:13:30;;;;;;;8.43;6.10;;;29.50;53.90;;;;;;6272176;22;88430;-68
2023/05/21 11:16:00;;;;;;;;;;;29.40;55.00;;;;;;6272848;22;87466;-70
2023/05/21 11:18:34;;;;;;;9.95;6.35;;;29.20;56.60;;;;;;6273094;22;88064;-70
2023/05/21 11:21:09;;;;;;;9.68;6.90;;;28.90;56.20;;;;;;6271963;22;88107;-69
2023/05/21 11:23:57;;;;;;;9.18;6.50;;;28.50;56.90;;;;;;6270869;22;87824;-71
2023/05/21 11:26:28;;;;;;;9.75;6.38;;;28.60;56.80;;;;;;6272244;22;87516;-71
2023/05/21 11:29:03;;;;;;;17.40;6.72;;;28.60;56.20;;;;;;6271961;22;87566;-69
2023/05/21 11:31:36;;;;;;;9.60;6.20;;;28.70;56.80;;;;;;6274245;22;88781;-69
2023/05/21 11:34:17;;;;;;;12.15;6.00;;;28.70;56.40;;;;;;6279956;22;87291;-69
2023/05/21 11:36:47;;;;;;;13.07;6.75;;;28.60;56.50;;;;;;6280529;22;87181;-70
2023/05/21 11:39:16;;;;;;;9.70;6.85;;;28.70;56.10;;;;;;6278566;22;89004;-69
2023/05/21 11:41:59;;;;;;;11.98;7.15;;;28.70;57.70;;;;;;6279249;22;88631;-71
2023/05/21 11:44:41;;;;;;;9.38;6.35;;;28.40;56.60;;;;;;6279716;22;87391;-70
2023/05/21 11:47:09;;;;;;;10.05;5.93;;;28.50;57.40;;;;;;6279924;22;87438;-69
2023/05/21 11:49:35;;;;;;;9.43;5.03;;;28.50;55.10;;;;;;6274212;22;87737;-71
2023/05/21 11:52:03;;;;;;;9.15;5.50;;;28.50;55.70;;;;;;6271554;22;88474;-74
2023/05/21 11:54:32;;;;;;;10.90;5.65;;;28.60;56.30;;;;;;6269265;22;87676;-72
2023/05/21 11:57:02;;;;;;;10.00;5.93;;;28.90;55.70;;;;;;6271083;22;87690;-72
2023/05/21 11:59:27;;;;;;;12.52;5.72;;;28.80;54.70;;;;;;6275171;22;88681;-68
2023/05/21 12:01:55;;;;;;;8.30;5.75;;;28.70;56.20;;;;;;6280031;22;87774;-71
2023/05/21 12:04:20;;;;;;;9.20;5.78;;;28.60;55.70;;;;;;6279759;22;88318;-73
2023/05/21 12:06:47;;;;;;;11.85;5.80;;;28.60;55.50;;;;;;6279801;22;87322;-69
2023/05/21 12:09:13;;;;;;;13.82;6.85;;;28.60;58.20;;;;;;6273035;22;87983;-71
2023/05/21 12:11:42;;;;;;;11.10;5.85;;;28.70;58.10;;;;;;6234997;22;88130;-71
2023/05/21 12:14:09;;;;;;;11.23;5.18;;;28.70;56.60;;;;;;6268291;22;87582;-72
2023/05/21 12:16:36;;;;;;;7.68;5.30;;;28.60;57.10;;;;;;6269275;22;87668;-70
2023/05/21 12:19:02;;;;;;;12.05;7.40;;;28.60;57.00;;;;;;6275918;22;88287;-70
2023/05/21 12:21:32;;;;;;;8.80;5.85;;;28.40;57.80;;;;;;6280115;22;87314;-69
2023/05/21 12:23:58;;;;;;;7.80;5.28;;;28.30;56.90;;;;;;6279852;22;87239;-69
2023/05/21 12:26:24;;;;;;;10.27;5.55;;;28.20;57.70;;;;;;6276580;22;87560;-69
2023/05/21 12:28:54;;;;;;;13.73;6.50;;;28.10;58.30;;;;;;6277444;22;88688;-69
2023/05/21 12:31:21;;;;;;;17.92;5.82;;;28.20;58.20;;;;;;6276878;22;88748;-69
2023/05/21 12:33:49;;;;;;;12.23;6.75;;;28.10;57.50;;;;;;6277996;22;87465;-69
2023/05/21 12:36:25;;;;;;;8.23;5.30;;;28.10;58.50;;;;;;6274473;22;87606;-71
2023/05/21 12:38:51;;;;;;;9.93;6.75;;;28.20;57.80;;;;;;6271533;22;87439;-68
2023/05/21 12:41:17;;;;;;;8.18;5.30;;;28.10;58.80;;;;;;6276726;22;87779;-68
2023/05/21 12:43:43;;;;;;;13.90;7.22;;;28.00;59.70;;;;;;6272601;22;87264;-68
2023/05/21 12:46:13;;;;;;;13.18;6.80;;;27.80;59.50;;;;;;6272294;22;86961;-69
2023/05/21 12:48:41;;;;;;;12.90;7.20;;;27.80;59.70;;;;;;6275630;22;87833;-69
2023/05/21 12:51:07;;;;;;;13.40;6.75;;;27.70;59.70;;;;;;6277668;22;88879;-71
2023/05/21 12:53:37;;;;;;;12.07;6.32;;;27.70;61.90;;;;;;6278535;22;88045;-69
2023/05/21 12:56:13;;;;;;;10.60;6.00;;;28.00;61.40;;;;;;6278823;22;87616;-70
2023/05/21 12:58:40;;;;;;;9.88;5.97;;;28.30;59.00;;;;;;6278311;22;88173;-69
2023/05/21 13:01:07;;;;;;;10.02;5.75;;;28.40;59.40;;;;;;6277811;22;90852;-70
2023/05/21 13:03:34;;;;;;;9.07;5.55;;;28.70;58.10;;;;;;6251805;22;88520;-69
2023/05/21 13:06:00;;;;;;;9.07;5.68;;;28.80;57.90;;;;;;6279954;22;87508;-70
2023/05/21 13:08:26;;;;;;;14.63;5.07;;;28.80;57.10;;;;;;6278841;22;87972;-69
2023/05/21 13:10:51;;;;;;;9.32;4.80;;;28.70;57.10;;;;;;6270403;22;87223;-68
2023/05/21 13:13:17;;;;;;;9.15;5.18;;;28.50;57.80;;;;;;6274191;22;87431;-68
2023/05/21 13:15:43;;;;;;;7.13;5.05;;;28.40;58.80;;;;;;6281179;22;87541;-69
2023/05/21 13:18:11;;;;;;;10.00;5.60;;;28.10;58.30;;;;;;6279337;22;89459;-68
2023/05/21 13:20:36;;;;;;;10.68;5.40;;;28.10;57.90;;;;;;6278574;22;88027;-69
2023/05/21 13:23:03;;;;;;;12.55;5.68;;;28.10;59.30;;;;;;6277728;22;87395;-69
2023/05/21 13:25:31;;;;;;;12.85;5.45;;;28.20;59.10;;;;;;6280968;22;87307;-68
2023/05/21 13:28:01;;;;;;;12.50;5.97;;;28.00;59.00;;;;;;6279134;22;87232;-68
2023/05/21 13:30:27;;;;;;;8.63;5.25;;;27.80;59.20;;;;;;6279077;22;89181;-70
2023/05/21 13:32:53;;;;;;;6.68;4.40;;;27.70;59.10;;;;;;6280706;22;87556;-69
2023/05/21 13:35:19;;;;;;;7.68;5.50;;;27.60;59.10;;;;;;6270843;22;86877;-72
2023/05/21 13:37:45;;;;;;;8.43;4.60;;;27.50;59.60;;;;;;6279588;22;89575;-68
2023/05/21 13:40:15;;;;;;;9.73;5.03;;;27.50;60.60;;;;;;6280837;22;87260;-69
2023/05/21 13:42:45;;;;;;;9.27;6.60;;;27.50;59.90;;;;;;6280374;22;87854;-68
2023/05/21 13:45:14;;;;;;;8.73;5.30;;;27.30;59.50;;;;;;6281498;22;87198;-68
2023/05/21 13:47:40;;;;;;;9.68;5.22;;;27.30;61.70;;;;;;6280393;22;88173;-72
2023/05/21 13:50:07;;;;;;;6.72;4.60;;;27.40;61.70;;;;;;6280923;22;87959;-69
2023/05/21 13:52:33;;;;;;;8.32;4.93;;;27.60;60.80;;;;;;6281079;22;87466;-68
2023/05/21 13:54:59;;;;;;;7.40;4.43;;;27.80;60.30;;;;;;6281329;22;87269;-69
2023/05/21 13:57:25;;;;;;;8.13;4.03;;;27.80;62.00;;;;;;6280400;22;88136;-68
2023/05/21 13:59:51;;;;;;;10.05;4.00;;;27.90;61.50;;;;;;6281234;22;87204;-70
2023/05/21 14:02:17;;;;;;;5.53;3.88;;;28.00;60.40;;;;;;6280667;22;87438;-69
2023/05/21 14:04:43;;;;;;;8.57;5.15;;;28.00;61.30;;;;;;6280329;22;87339;-69
2023/05/21 14:07:10;;;;;;;8.40;3.58;;;28.10;61.00;;;;;;6279944;22;89025;-69
2023/05/21 14:09:36;;;;;;;8.05;2.70;;;28.20;61.40;;;;;;6281098;22;88883;-68
2023/05/21 14:12:04;;;;;;;6.20;3.28;;;28.30;57.50;;;;;;6280571;22;86970;-68
2023/05/21 14:14:30;;;;;;;5.18;3.22;;;28.50;58.90;;;;;;6281780;22;87334;-68
2023/05/21 14:16:56;;;;;;;5.75;2.63;;;28.50;57.90;;;;;;6279972;22;87904;-69
2023/05/21 14:19:21;;;;;;;3.78;2.17;;;28.60;58.10;;;;;;6281046;22;87886;-69
2023/05/21 14:21:50;;;;;;;4.05;2.30;;;28.70;57.00;;;;;;6280644;22;87164;-69
2023/05/21 14:24:15;;;;;;;3.13;1.77;;;28.60;57.30;;;;;;6282103;22;86703;-68
2023/05/21 14:26:42;;;;;;;2.97;1.90;;;28.80;55.70;;;;;;6280455;22;87673;-68
2023/05/21 14:29:08;;;;;;;3.30;1.90;;;28.90;53.80;;;;;;6273142;22;88020;-68
2023/05/21 14:31:34;;;;;;;4.57;2.13;;;28.90;54.30;;;;;;6277821;22;88796;-68
2023/05/21 14:34:01;;;;;;;4.07;1.77;;;29.00;52.90;;;;;;6280146;22;87371;-68
2023/05/21 14:36:27;;;;;;;3.67;2.05;;;29.00;52.00;;;;;;6278347;22;87722;-71
2023/05/21 14:38:53;;;;;;;3.35;2.05;;;29.20;52.90;;;;;;6278520;22;87748;-69
2023/05/21 14:41:20;;;;;;;4.50;1.65;;;29.60;52.10;;;;;;6251999;22;87533;-69
2023/05/21 14:43:46;;;;;;;7.60;2.10;;;29.80;49.80;;;;;;6278878;22;87227;-69
2023/05/21 14:46:12;;;;;;;3.80;1.92;;;29.90;50.70;;;;;;6278471;22;88607;-70
2023/05/21 14:48:37;;;;;;;2.50;1.58;;;30.10;47.60;;;;;;6275715;22;88647;-70
2023/05/21 14:51:03;;;;;;;5.03;2.03;;;30.10;46.90;;;;;;6279364;22;87390;-67
2023/05/21 14:53:29;;;;;;;4.55;1.52;;;30.20;48.20;;;;;;6279107;22;87662;-69
2023/05/21 14:55:54;;;;;;;3.55;1.45;;;30.20;45.60;;;;;;6278054;22;88803;-69
2023/05/21 14:58:20;;;;;;;4.47;1.73;;;30.20;48.10;;;;;;6278271;22;88202;-70
2023/05/21 15:00:46;;;;;;;3.20;1.65;;;30.20;48.20;;;;;;6278526;22;87350;-69
2023/05/21 15:03:11;;;;;;;4.63;1.27;;;30.20;48.70;;;;;;6279701;22;86918;-70
2023/05/21 15:05:37;;;;;;;3.00;1.55;;;30.30;48.10;;;;;;6278156;22;88710;-69
2023/05/21 15:08:04;;;;;;;4.00;2.10;;;30.10;45.60;;;;;;6278563;22;87965;-68
2023/05/21 15:10:30;;;;;;;3.40;1.73;;;29.90;46.20;;;;;;6278201;22;87526;-68
2023/05/21 15:12:56;;;;;;;4.68;1.98;;;29.50;46.40;;;;;;6279132;22;86632;-69
2023/05/21 15:15:21;;;;;;;3.17;1.67;;;29.30;47.00;;;;;;6278656;22;87977;-69
2023/05/21 15:17:49;;;;;;;2.80;1.70;;;29.20;46.90;;;;;;6273684;22;87915;-69
2023/05/21 15:20:15;;;;;;;7.10;1.83;;;29.10;48.20;;;;;;6277918;22;88334;-70
2023/05/21 15:22:41;;;;;;;4.82;1.85;;;29.00;46.30;;;;;;6272336;22;87528;-69
2023/05/21 15:25:07;;;;;;;2.70;1.40;;;28.90;46.90;;;;;;6268750;22;89253;-70
2023/05/21 15:27:33;;;;;;;6.78;1.67;;;28.90;47.70;;;;;;6270610;22;87545;-70
2023/05/21 15:29:59;;;;;;;4.05;1.90;;;28.90;48.80;;;;;;6277115;22;87283;-70
2023/05/21 15:32:25;;;;;;;3.22;1.70;;;28.90;48.30;;;;;;6277237;22;87412;-70
2023/05/21 15:34:51;;;;;;;5.82;2.17;;;28.80;49.60;;;;;;6251754;22;88703;-69
2023/05/21 15:37:17;;;;;;;3.20;1.80;;;28.60;51.30;;;;;;6277552;22;88194;-69
2023/05/21 15:39:44;;;;;;;3.90;2.00;;;28.40;52.40;;;;;;6276925;22;87615;-68
2023/05/21 15:42:10;;;;;;;5.85;2.05;;;28.30;54.50;;;;;;6279621;22;87446;-69
2023/05/21 15:44:37;;;;;;;5.68;2.95;;;28.20;56.40;;;;;;6276568;22;89192;-69
2023/05/21 15:47:03;;;;;;;5.07;2.65;;;27.90;56.00;;;;;;6276879;22;88307;-70
2023/05/21 15:49:28;;;;;;;5.10;2.40;;;27.80;55.40;;;;;;6278335;22;87449;-69
2023/05/21 15:51:56;;;;;;;5.15;2.38;;;27.60;56.50;;;;;;6278369;22;87589;-69
2023/05/21 15:54:29;;;;;;;5.10;2.70;;;27.50;57.00;;;;;;6277495;22;88113;-71
2023/05/21 15:56:55;;;;;;;7.22;3.53;;;27.40;57.70;;;;;;6278172;22;88197;-68
2023/05/21 15:59:21;;;;;;;4.85;2.92;;;27.40;57.70;;;;;;6278954;22;88761;-69
2023/05/21 16:01:47;;;;;;;6.47;3.08;;;27.30;57.10;;;;;;6279567;22;86568;-69
2023/05/21 16:04:14;;;;;;;4.32;2.53;;;27.30;57.60;;;;;;6277563;22;87617;-69